createdAt,value
2019-04-10T00:00:12.649Z,7.30
2019-04-10T00:02:43.882Z,7.30
2019-04-10T00:05:14.166Z,7.30
2019-04-10T00:07:46.601Z,7.20
2019-04-10T00:10:17.171Z,7.30
2019-04-10T00:12:48.571Z,7.20
2019-04-10T00:15:19.816Z,7.20
2019-04-10T00:17:51.431Z,7.10
2019-04-10T00:20:22.812Z,7.10
2019-04-10T00:23:11.798Z,7.10
2019-04-10T00:25:45.365Z,7.10
2019-04-10T00:28:19.706Z,7.00
2019-04-10T00:30:49.644Z,7.00
2019-04-10T00:33:20.712Z,7.00
2019-04-10T00:35:52.293Z,7.00
2019-04-10T00:38:22.414Z,6.90
2019-04-10T00:40:55.576Z,6.90
2019-04-10T00:43:26.750Z,6.90
2019-04-10T00:45:57.772Z,6.80
2019-04-10T00:48:30.130Z,6.80
2019-04-10T00:51:04.066Z,6.70
2019-04-10T00:53:33.367Z,6.70
2019-04-10T00:56:04.711Z,6.60
2019-04-10T00:58:35.816Z,6.60
2019-04-10T01:01:09.632Z,6.60
2019-04-10T01:03:49.032Z,6.50
2019-04-10T01:06:19.933Z,6.50
2019-04-10T01:08:51.589Z,6.50
2019-04-10T01:11:21.609Z,6.50
2019-04-10T01:13:55.212Z,6.50
2019-04-10T01:16:27.193Z,6.40
2019-04-10T01:18:58.305Z,6.50
2019-04-10T01:21:30.708Z,6.40
2019-04-10T01:24:05.762Z,6.40
2019-04-10T01:26:40.265Z,6.40
2019-04-10T01:29:12.177Z,6.40
2019-04-10T01:31:45.560Z,6.40
2019-04-10T01:34:18.981Z,6.40
2019-04-10T01:36:52.312Z,6.30
2019-04-10T01:39:28.551Z,6.20
2019-04-10T01:41:58.595Z,6.20
2019-04-10T01:44:32.938Z,6.20
2019-04-10T01:47:04.757Z,6.10
2019-04-10T01:49:37.868Z,6.10
2019-04-10T01:52:09.338Z,6.00
2019-04-10T01:54:43.054Z,6.10
2019-04-10T01:57:32.559Z,6.00
2019-04-10T02:00:06.795Z,6.00
2019-04-10T02:02:39.155Z,6.00
2019-04-10T02:05:12.459Z,5.80
2019-04-10T02:07:44.459Z,5.70
2019-04-10T02:10:17.021Z,5.80
2019-04-10T02:12:48.671Z,5.80
2019-04-10T02:15:19.682Z,5.80
2019-04-10T02:17:52.937Z,5.80
2019-04-10T02:20:27.142Z,5.70
2019-04-10T02:22:59.827Z,5.70
2019-04-10T02:25:30.956Z,5.80
2019-04-10T02:28:02.797Z,5.50
2019-04-10T02:30:36.883Z,5.50
2019-04-10T02:33:08.184Z,5.50
2019-04-10T02:35:40.076Z,5.60
2019-04-10T02:38:31.846Z,5.60
2019-04-10T02:40:47.508Z,5.50
2019-04-10T02:43:21.115Z,5.50
2019-04-10T02:45:52.385Z,5.40
2019-04-10T02:48:23.463Z,5.40
2019-04-10T02:50:55.610Z,5.40
2019-04-10T02:53:29.539Z,5.40
2019-04-10T02:56:00.815Z,5.30
2019-04-10T02:58:32.244Z,5.20
2019-04-10T03:01:03.697Z,5.10
2019-04-10T03:03:36.122Z,5.20
2019-04-10T03:06:07.398Z,5.20
2019-04-10T03:08:54.943Z,5.10
2019-04-10T03:11:16.940Z,5.20
2019-04-10T03:13:49.082Z,5.10
2019-04-10T03:16:20.250Z,5.10
2019-04-10T03:18:51.601Z,5.00
2019-04-10T03:21:24.284Z,5.00
2019-04-10T03:23:55.970Z,5.00
2019-04-10T03:26:29.793Z,5.00
2019-04-10T03:29:03.164Z,5.00
2019-04-10T03:31:34.549Z,5.00
2019-04-10T03:34:21.615Z,5.00
2019-04-10T03:36:51.812Z,4.80
2019-04-10T03:39:21.781Z,4.80
2019-04-10T03:41:54.629Z,4.80
2019-04-10T03:44:28.867Z,4.80
2019-04-10T03:47:03.988Z,4.60
2019-04-10T03:49:36.113Z,4.60
2019-04-10T03:52:10.060Z,4.60
2019-04-10T03:54:46.078Z,4.50
2019-04-10T03:57:18.404Z,4.70
2019-04-10T03:59:49.728Z,4.70
2019-04-10T04:02:24.686Z,4.70
2019-04-10T04:04:55.955Z,4.70
2019-04-10T04:07:27.570Z,4.70
2019-04-10T04:10:00.181Z,4.60
2019-04-10T04:12:31.348Z,4.50
2019-04-10T04:15:03.591Z,4.60
2019-04-10T04:17:55.608Z,4.60
2019-04-10T04:20:28.658Z,4.70
2019-04-10T04:23:01.376Z,4.70
2019-04-10T04:25:33.160Z,4.70
2019-04-10T04:28:11.405Z,4.60
2019-04-10T04:30:46.418Z,4.60
2019-04-10T04:33:17.061Z,4.60
2019-04-10T04:35:48.579Z,4.60
2019-04-10T04:38:21.181Z,4.70
2019-04-10T04:40:52.843Z,4.70
2019-04-10T04:43:23.344Z,4.70
2019-04-10T04:45:59.061Z,4.70
2019-04-10T04:48:31.931Z,4.70
2019-04-10T04:51:03.302Z,4.60
2019-04-10T04:53:34.509Z,4.60
2019-04-10T04:56:05.744Z,4.60
2019-04-10T04:58:38.766Z,4.60
2019-04-10T05:01:10.581Z,4.70
2019-04-10T05:03:42.124Z,4.70
2019-04-10T05:06:16.658Z,4.70
2019-04-10T05:08:51.233Z,4.70
2019-04-10T05:11:25.086Z,4.70
2019-04-10T05:13:59.285Z,4.70
2019-04-10T05:16:31.028Z,4.70
2019-04-10T05:21:54.003Z,4.80
2019-04-10T05:24:27.992Z,4.90
2019-04-10T05:27:01.279Z,4.80
2019-04-10T05:29:32.611Z,4.80
2019-04-10T05:32:07.312Z,4.90
2019-04-10T05:34:43.346Z,5.00
2019-04-10T05:39:50.611Z,5.20
2019-04-10T05:42:18.207Z,5.20
2019-04-10T05:44:47.931Z,5.20
2019-04-10T05:47:21.863Z,5.20
2019-04-10T05:49:57.618Z,5.30
2019-04-10T05:52:31.885Z,5.30
2019-04-10T05:55:02.805Z,5.20
2019-04-10T05:57:34.927Z,5.30
2019-04-10T06:02:44.905Z,5.30
2019-04-10T06:05:20.191Z,5.40
2019-04-10T06:07:53.847Z,5.40
2019-04-10T06:10:27.904Z,5.40
2019-04-10T06:12:59.087Z,5.30
2019-04-10T06:15:30.685Z,5.30
2019-04-10T06:18:02.985Z,5.40
2019-04-10T06:20:37.608Z,5.40
2019-04-10T06:23:09.388Z,5.50
2019-04-10T06:25:43.470Z,5.50
2019-04-10T06:28:18.729Z,5.50
2019-04-10T06:30:52.330Z,5.60
2019-04-10T06:35:55.381Z,5.70
2019-04-10T06:38:31.745Z,5.80
2019-04-10T06:43:37.206Z,5.80
2019-04-10T06:46:12.323Z,5.80
2019-04-10T06:48:44.557Z,5.70
2019-04-10T06:51:20.248Z,5.70
2019-04-10T06:54:00.898Z,5.80
2019-04-10T06:56:27.838Z,5.90
2019-04-10T06:59:00.281Z,6.00
2019-04-10T07:01:40.618Z,6.10
2019-04-10T07:04:07.911Z,6.20
2019-04-10T07:09:15.816Z,6.40
2019-04-10T07:11:50.044Z,6.50
2019-04-10T07:14:22.592Z,6.60
2019-04-10T07:16:54.772Z,6.60
2019-04-10T07:19:37.035Z,6.60
2019-04-10T07:22:11.148Z,6.70
2019-04-10T07:24:42.571Z,6.80
2019-04-10T07:27:17.062Z,6.90
2019-04-10T07:29:52.335Z,6.90
2019-04-10T07:32:24.294Z,6.90
2019-04-10T07:34:58.254Z,6.70
2019-04-10T07:37:28.556Z,6.80
2019-04-10T07:40:03.326Z,6.70
2019-04-10T07:42:41.592Z,6.70
2019-04-10T07:45:13.045Z,6.70
2019-04-10T07:47:46.239Z,6.80
2019-04-10T07:50:18.614Z,6.90
2019-04-10T07:52:52.007Z,6.90
2019-04-10T07:58:17.283Z,7.10
2019-04-10T08:00:49.720Z,7.20
2019-04-10T08:03:23.281Z,7.20
2019-04-10T08:05:58.193Z,7.30
2019-04-10T08:08:31.978Z,7.40
2019-04-10T08:11:09.126Z,7.50
2019-04-10T08:16:19.590Z,7.70
2019-04-10T08:18:50.136Z,7.80
2019-04-10T08:21:23.925Z,7.50
2019-04-10T08:26:28.255Z,7.80
2019-04-10T08:29:01.749Z,7.90
2019-04-10T08:31:35.127Z,8.10
2019-04-10T08:36:37.500Z,8.40
2019-04-10T08:39:10.744Z,8.30
2019-04-10T08:41:43.815Z,8.40
2019-04-10T08:44:13.990Z,8.50
2019-04-10T08:46:46.786Z,8.40
2019-04-10T08:49:21.265Z,8.70
2019-04-10T08:51:53.971Z,8.70
2019-04-10T08:54:26.325Z,8.80
2019-04-10T08:56:56.802Z,9.10
2019-04-10T08:59:28.479Z,9.20
2019-04-10T09:02:00.009Z,9.20
2019-04-10T09:04:34.203Z,9.20
2019-04-10T09:07:08.279Z,9.00
2019-04-10T09:09:41.561Z,9.00
2019-04-10T09:12:13.592Z,9.20
2019-04-10T09:14:43.622Z,9.50
2019-04-10T09:17:15.371Z,9.90
2019-04-10T09:19:47.211Z,10.10
2019-04-10T09:27:53.905Z,11.00
2019-04-10T09:32:56.900Z,11.30
2019-04-10T09:35:28.991Z,11.40
2019-04-10T09:38:00.168Z,11.60
2019-04-10T09:40:32.080Z,11.80
2019-04-10T09:43:07.341Z,12.20
2019-04-10T09:45:39.768Z,12.50
2019-04-10T09:48:10.779Z,12.80
2019-04-10T09:50:41.753Z,13.10
2019-04-10T09:53:13.093Z,13.30
2019-04-10T09:55:44.765Z,12.90
2019-04-10T09:58:17.586Z,13.00
2019-04-10T10:00:50.594Z,12.80
2019-04-10T10:03:21.995Z,11.80
2019-04-10T10:08:26.586Z,11.80
2019-04-10T10:10:57.632Z,11.90
2019-04-10T10:13:31.788Z,11.70
2019-04-10T10:16:04.376Z,11.90
2019-04-10T10:18:37.328Z,11.80
2019-04-10T10:21:10.730Z,11.90
2019-04-10T10:23:43.666Z,12.10
2019-04-10T10:28:54.705Z,11.90
2019-04-10T10:31:28.451Z,11.90
2019-04-10T10:34:01.877Z,12.00
2019-04-10T10:36:40.772Z,12.00
2019-04-10T10:39:11.131Z,11.70
2019-04-10T10:41:40.529Z,11.80
2019-04-10T10:44:11.781Z,11.90
2019-04-10T10:46:44.028Z,12.00
2019-04-10T10:49:14.134Z,12.20
2019-04-10T10:51:45.513Z,12.30
2019-04-10T10:54:17.035Z,12.00
2019-04-10T10:56:46.947Z,12.10
2019-04-10T10:59:17.564Z,12.10
2019-04-10T11:01:51.929Z,12.20
2019-04-10T11:04:24.501Z,12.30
2019-04-10T11:07:00.933Z,12.10
2019-04-10T11:09:32.591Z,12.50
2019-04-10T11:12:04.710Z,12.90
2019-04-10T11:14:35.480Z,13.30
2019-04-10T11:17:07.528Z,13.30
2019-04-10T11:19:37.760Z,13.40
2019-04-10T11:22:09.254Z,13.60
2019-04-10T11:24:40.745Z,14.00
2019-04-10T11:27:15.961Z,14.10
2019-04-10T11:29:47.844Z,13.40
2019-04-10T11:32:19.970Z,14.10
2019-04-10T11:34:50.683Z,14.60
2019-04-10T11:37:31.836Z,14.70
2019-04-10T11:39:56.121Z,14.20
2019-04-10T11:42:28.983Z,14.30
2019-04-10T11:45:01.928Z,14.20
2019-04-10T11:47:35.413Z,14.10
2019-04-10T11:52:52.192Z,13.80
2019-04-10T11:55:24.478Z,13.80
2019-04-10T11:57:54.669Z,13.90
2019-04-10T12:00:50.395Z,13.70
2019-04-10T12:03:19.296Z,13.50
2019-04-10T12:05:51.794Z,13.20
2019-04-10T12:13:32.958Z,12.80
2019-04-10T12:16:07.142Z,12.80
2019-04-10T12:18:38.751Z,12.70
2019-04-10T12:21:11.508Z,12.70
2019-04-10T12:23:45.240Z,12.60
2019-04-10T12:26:17.923Z,12.70
2019-04-10T12:28:48.003Z,12.40
2019-04-10T12:31:21.841Z,12.40
2019-04-10T12:33:56.888Z,12.40
2019-04-10T12:36:29.562Z,12.40
2019-04-10T12:39:00.348Z,12.20
2019-04-10T12:41:31.649Z,12.10
2019-04-10T12:44:05.333Z,12.00
2019-04-10T12:46:39.445Z,12.00
2019-04-10T12:49:11.539Z,12.00
2019-04-10T12:51:43.660Z,11.90
2019-04-10T12:54:17.394Z,11.70
2019-04-10T12:56:47.011Z,11.80
2019-04-10T12:59:17.337Z,11.70
2019-04-10T13:04:21.225Z,11.50
2019-04-10T13:06:53.250Z,11.60
2019-04-10T13:09:29.997Z,11.50
2019-04-10T13:12:00.688Z,11.30
2019-04-10T13:14:32.841Z,11.30
2019-04-10T13:17:04.720Z,11.40
2019-04-10T13:19:35.691Z,11.40
2019-04-10T13:22:09.507Z,11.40
2019-04-10T13:24:39.869Z,11.30
2019-04-10T13:27:10.411Z,11.30
2019-04-10T13:29:44.634Z,11.40
2019-04-10T13:32:16.944Z,11.30
2019-04-10T13:34:49.517Z,11.20
2019-04-10T13:37:24.149Z,11.00
2019-04-10T13:42:54.111Z,10.80
2019-04-10T13:45:27.248Z,10.70
2019-04-10T13:47:58.825Z,10.70
2019-04-10T13:50:30.700Z,10.70
2019-04-10T13:53:01.595Z,10.60
2019-04-10T13:55:37.077Z,10.60
2019-04-10T14:00:45.136Z,10.30
2019-04-10T14:03:20.449Z,10.30
2019-04-10T14:05:54.854Z,10.30
2019-04-10T14:08:40.313Z,10.20
2019-04-10T14:11:03.051Z,10.10
2019-04-10T14:13:34.130Z,10.10
2019-04-10T14:16:06.473Z,9.90
2019-04-10T14:18:37.089Z,9.90
2019-04-10T14:21:12.902Z,9.90
2019-04-10T14:23:41.151Z,9.90
2019-04-10T14:26:24.503Z,9.90
2019-04-10T14:28:57.993Z,9.90
2019-04-10T14:31:32.798Z,9.90
2019-04-10T14:34:05.028Z,9.90
2019-04-10T14:36:38.879Z,9.90
2019-04-10T14:39:20.798Z,9.80
2019-04-10T14:41:53.893Z,9.80
2019-04-10T14:44:28.555Z,9.70
2019-04-10T14:49:58.156Z,9.70
2019-04-10T14:52:32.832Z,9.70
2019-04-10T14:55:08.216Z,9.70
2019-04-10T14:57:39.141Z,9.70
2019-04-10T15:00:13.045Z,9.70
2019-04-10T15:02:44.163Z,9.60
2019-04-10T15:05:17.523Z,9.60
2019-04-10T15:07:51.100Z,9.70
2019-04-10T15:10:22.166Z,9.80
2019-04-10T15:13:06.949Z,9.80
2019-04-10T15:15:29.114Z,9.60
2019-04-10T15:18:04.593Z,9.60
2019-04-10T15:20:37.607Z,9.60
2019-04-10T15:23:10.561Z,9.60
2019-04-10T15:25:45.644Z,9.60
2019-04-10T15:28:16.091Z,9.60
2019-04-10T15:30:47.885Z,9.70
2019-04-10T15:33:18.357Z,9.70
2019-04-10T15:35:48.578Z,9.70
2019-04-10T15:38:22.116Z,9.70
2019-04-10T15:43:47.698Z,9.70
2019-04-10T15:46:21.348Z,9.70
2019-04-10T15:48:55.095Z,9.70
2019-04-10T15:51:26.343Z,9.70
2019-04-10T15:53:59.262Z,9.70
2019-04-10T15:56:34.021Z,9.60
2019-04-10T15:59:06.024Z,9.50
2019-04-10T16:01:37.629Z,9.50
2019-04-10T16:04:08.623Z,9.40
2019-04-10T16:06:42.058Z,9.40
2019-04-10T16:09:15.091Z,9.30
2019-04-10T16:12:01.009Z,9.20
2019-04-10T16:14:32.957Z,9.10
2019-04-10T16:17:19.248Z,9.10
2019-04-10T16:22:56.748Z,9.00
2019-04-10T16:25:34.395Z,9.00
2019-04-10T16:28:04.331Z,8.80
2019-04-10T16:30:37.065Z,8.80
2019-04-10T16:33:07.401Z,8.80
2019-04-10T16:35:40.831Z,8.80
2019-04-10T16:38:12.064Z,8.80
2019-04-10T16:40:44.207Z,8.80
2019-04-10T16:43:16.030Z,8.70
2019-04-10T16:45:49.454Z,8.70
2019-04-10T16:48:19.689Z,8.60
2019-04-10T16:50:54.741Z,8.50
2019-04-10T16:53:27.931Z,8.50
2019-04-10T16:58:30.410Z,8.40
2019-04-10T17:01:04.277Z,8.40
2019-04-10T17:03:37.733Z,8.40
2019-04-10T17:06:08.489Z,8.30
2019-04-10T17:08:40.463Z,8.30
2019-04-10T17:11:12.518Z,8.20
2019-04-10T17:13:42.557Z,8.30
2019-04-10T17:16:15.651Z,8.30
2019-04-10T17:18:47.751Z,8.20
2019-04-10T17:21:30.556Z,8.20
2019-04-10T17:24:05.011Z,8.10
2019-04-10T17:26:39.175Z,8.00
2019-04-10T17:29:09.927Z,8.10
2019-04-10T17:31:44.276Z,8.00
2019-04-10T17:34:14.559Z,8.00
2019-04-10T17:36:47.334Z,8.00
2019-04-10T17:42:09.968Z,7.90
2019-04-10T17:44:45.546Z,7.90
2019-04-10T17:47:20.702Z,7.90
2019-04-10T17:49:51.830Z,7.90
2019-04-10T17:52:23.162Z,7.90
2019-04-10T17:54:55.468Z,7.90
2019-04-10T17:57:38.107Z,7.90
2019-04-10T18:00:03.370Z,7.80
2019-04-10T18:02:34.935Z,7.80
2019-04-10T18:05:06.575Z,7.80
2019-04-10T18:07:40.551Z,7.80
2019-04-10T18:10:11.938Z,7.70
2019-04-10T18:12:42.176Z,7.70
2019-04-10T18:15:13.527Z,7.70
2019-04-10T18:17:47.157Z,7.70
2019-04-10T18:22:56.951Z,7.60
2019-04-10T18:25:29.731Z,7.60
2019-04-10T18:28:01.201Z,7.60
2019-04-10T18:33:05.138Z,7.60
2019-04-10T18:35:36.693Z,7.50
2019-04-10T18:38:08.952Z,7.60
2019-04-10T18:40:58.610Z,7.50
2019-04-10T18:43:27.024Z,7.40
2019-04-10T18:46:09.047Z,7.40
2019-04-10T18:48:34.691Z,7.40
2019-04-10T18:51:07.888Z,7.40
2019-04-10T18:53:37.962Z,7.40
2019-04-10T18:56:08.902Z,7.40
2019-04-10T18:58:41.844Z,7.40
2019-04-10T19:01:31.649Z,7.40
2019-04-10T19:04:20.504Z,7.40
2019-04-10T19:06:56.781Z,7.40
2019-04-10T19:09:32.482Z,7.40
2019-04-10T19:12:05.348Z,7.30
2019-04-10T19:14:38.657Z,7.30
2019-04-10T19:17:12.864Z,7.30
2019-04-10T19:19:48.540Z,7.30
2019-04-10T19:22:20.380Z,7.30
2019-04-10T19:24:50.509Z,7.30
2019-04-10T19:27:22.734Z,7.20
2019-04-10T19:29:54.986Z,7.20
2019-04-10T19:35:19.911Z,7.20
2019-04-10T19:37:51.250Z,7.20
2019-04-10T19:40:23.545Z,7.20
2019-04-10T19:42:53.642Z,7.10
2019-04-10T19:45:25.943Z,7.00
2019-04-10T19:47:58.915Z,7.10
2019-04-10T19:50:31.523Z,7.10
2019-04-10T19:53:04.930Z,7.10
2019-04-10T19:55:37.914Z,7.10
2019-04-10T19:58:10.769Z,7.10
2019-04-10T20:00:40.934Z,7.00
2019-04-10T20:03:15.383Z,7.10
2019-04-10T20:05:47.727Z,7.10
2019-04-10T20:08:23.787Z,7.10
2019-04-10T20:10:55.056Z,7.10
2019-04-10T20:13:27.337Z,7.10
2019-04-10T20:15:58.646Z,7.00
2019-04-10T20:18:31.410Z,7.00
2019-04-10T20:21:03.800Z,7.00
2019-04-10T20:23:34.752Z,7.00
2019-04-10T20:26:05.130Z,7.00
2019-04-10T20:28:38.782Z,7.00
2019-04-10T20:31:10.692Z,7.00
2019-04-10T20:33:45.160Z,7.00
2019-04-10T20:36:15.158Z,6.90
2019-04-10T20:38:50.500Z,6.90
2019-04-10T20:41:24.730Z,6.90
2019-04-10T20:43:55.876Z,6.90
2019-04-10T20:46:31.172Z,6.90
2019-04-10T20:49:04.729Z,6.90
2019-04-10T20:51:35.872Z,6.90
2019-04-10T20:54:07.069Z,6.90
2019-04-10T20:56:39.529Z,6.90
2019-04-10T20:59:12.032Z,6.90
2019-04-10T21:01:44.830Z,6.90
2019-04-10T21:04:18.897Z,6.90
2019-04-10T21:06:50.104Z,6.90
2019-04-10T21:09:23.629Z,6.80
2019-04-10T21:12:03.859Z,6.80
2019-04-10T21:14:33.770Z,6.80
2019-04-10T21:17:05.313Z,6.80
2019-04-10T21:19:37.564Z,6.80
2019-04-10T21:22:08.922Z,6.80
2019-04-10T21:24:41.353Z,6.80
2019-04-10T21:27:13.964Z,6.80
2019-04-10T21:29:52.786Z,6.80
2019-04-10T21:32:30.363Z,6.70
2019-04-10T21:35:04.004Z,6.80
2019-04-10T21:37:35.377Z,6.70
2019-04-10T21:40:08.077Z,6.70
2019-04-10T21:42:45.354Z,6.70
2019-04-10T21:45:18.023Z,6.70
2019-04-10T21:47:48.160Z,6.70
2019-04-10T21:50:20.080Z,6.60
2019-04-10T21:52:53.762Z,6.70
2019-04-10T21:55:26.866Z,6.60
2019-04-10T21:57:59.596Z,6.60
2019-04-10T22:00:38.790Z,6.60
2019-04-10T22:03:11.212Z,6.60
2019-04-10T22:05:44.544Z,6.50
2019-04-10T22:08:18.747Z,6.50
2019-04-10T22:10:50.980Z,6.60
2019-04-10T22:13:22.086Z,6.60
2019-04-10T22:15:53.271Z,6.60
2019-04-10T22:18:25.301Z,6.60
2019-04-10T22:20:57.221Z,6.50
2019-04-10T22:23:30.687Z,6.50
2019-04-10T22:26:04.281Z,6.50
2019-04-10T22:28:35.478Z,6.50
2019-04-10T22:31:07.639Z,6.50
2019-04-10T22:33:38.504Z,6.50
2019-04-10T22:36:12.875Z,6.50
2019-04-10T22:38:44.222Z,6.40
2019-04-10T22:41:23.578Z,6.50
2019-04-10T22:43:50.490Z,6.40
2019-04-10T22:46:25.805Z,6.30
2019-04-10T22:51:29.707Z,6.30
2019-04-10T22:54:01.831Z,6.30
2019-04-10T22:56:35.731Z,6.20
2019-04-10T22:59:10.074Z,6.30
2019-04-10T23:01:39.894Z,6.30
2019-04-10T23:04:12.520Z,6.20
2019-04-10T23:06:45.725Z,6.10
2019-04-10T23:09:17.192Z,6.20
2019-04-10T23:11:48.330Z,6.20
2019-04-10T23:14:22.679Z,6.20
2019-04-10T23:19:44.633Z,6.00
2019-04-10T23:22:15.069Z,6.00
2019-04-10T23:24:47.582Z,6.00
2019-04-10T23:27:17.805Z,6.00
2019-04-10T23:29:48.605Z,6.00
2019-04-10T23:32:21.464Z,6.00
2019-04-10T23:34:54.749Z,5.90
2019-04-10T23:37:27.424Z,6.00
2019-04-10T23:39:58.703Z,5.90
2019-04-10T23:42:32.350Z,5.90
2019-04-10T23:45:02.591Z,5.90
2019-04-10T23:47:36.071Z,5.90
2019-04-10T23:50:08.127Z,5.80
2019-04-10T23:52:42.243Z,5.80
2019-04-10T23:55:13.701Z,5.80
2019-04-10T23:57:45.318Z,5.80
